Main page
METAR-TAF:

METAR-TAF

Airports :

London City Airport

London, England

latitude: 51-30N, longitude: 000-03E, elevation: 5 m

Current weather observation

The report was made 32 minutes ago, at 05:20 UTC
Wind 3 kt from the East
Temperature 17°C
Humidity 88%
Pressure 1017 hPa
Visibility: 2800 m
haze

METAR: EGLC 250520Z AUTO 10003KT 2800 HZ NCD 17/15 Q1017

Time: 06:52 (05:52 UTC)

Forecast

The report was made 52 minutes ago, at 05:00 UTC
Forecast valid from 25 at 06 UTC to 25 at 15 UTC
Wind 4 kt from the East
Visibility: 6000 m
Temporary
from 25 at 06 UTC to 25 at 08 UTC
Visibility: 3000 m
haze
Becoming
from 25 at 08 UTC to 25 at 10 UTC
Visibility 10 km or more
no clouds below 1500 m and no cumulonimbus

TAF: EGLC 250500Z 2506/2515 09004KT 6000 NSC TEMPO 2506/2508 3000 HZ BECMG 2508/2510 CAVOK

Weather observations and forecasts of more than 4000 airports (METAR and TAF reports).

The available stations are represented by yellow and red dots on the map.

Hover mouse over dot to see the name of the station.

Then click to see weather observations and forecasts.

To change the map : click on the green buttons with a black cross to zoom in, on the green button with a dash to zoom out, or on the green arrows for adjacent maps.


METAR-TAF: